Terminal Aerodrome Forecast
Issued by NWS

Home | Current Version | Previous Version | Text Only | Print | Product List | Glossary On
Versions: 1 2 3 4 5 6 7 8 9 10 11 12 13 14 15 16 17 18 19 20 21 22 23 24 25
000
FTUS46 KLOX 232300 RRA
TAFSBA
TAF
KSBA 232350Z 2400/2424 16007KT P6SM SCT200
     FM240200 34006KT P6SM SCT200
      TEMPO 2403/2405 34015G25KT
     FM240800 08004KT P6SM SCT200
     FM241600 16006KT P6SM BKN200=

USA.gov is the U.S. government's official web portal to all federal, state and local government web resources and services.